Tiempo atmosférico en la estación meteorológica de Buitrago del Lozoya, Madrid (1026 m.)



Fecha
DESCASC
Temp. máxima en grados centígrados (hora)
DESCASC
Temp. mínima en grados centígrados (hora)
DESCASC
Temp. media en grados centígrados
DESCASC
Racha de viento máxima en m/sg (hora)
DESCASC
Velocidad máxima media en intervalos de 10 minutos(hora)
DESCASC
Precipitaciones diarias en mm
DESCASC
Precipitaciones de 00:00 a 06:00 en mm
DESCASC
Precipitaciones de 06:00 a 12:00 en mm
DESCASC
Precipitaciones de 12:00 a 18:00 en mm
DESCASC
Precipitaciones de 18:00 a 24:00 en mm
DESCASC
11-08-2020 20.8 (12:30) 13.9 (22:50) 17.3 16.67 (12:50) 6.94 (12:50) 22.8 1.4 0 15.5 5.9
10-08-2020 27.8 (19:50) 15.9 (06:20) 21.8 9.17 (15:30) 5 (15:30) 0 0 0 0 0
09-08-2020 35.2 (17:20) 15.6 (07:40) 25.4 11.11 (16:50) 5 (18:10) 0 0 0 0 0
08-08-2020 33.2 (19:00) 16.8 (06:30) 25 7.5 (17:50) 3.89 (17:40) 0 0 0 0 0
07-08-2020 35.3 (17:20) 15.8 (00:00) 25.5 9.44 (18:10) 4.72 (18:10) 0 0 0 0 0
06-08-2020 34.1 (17:00) 13.7 (00:00) 23.9 9.17 (17:10) 4.44 (17:10) 0 0 0 0 0
05-08-2020 33.6 (17:10) 11.1 (00:00) 22.3 6.11 (16:20) 2.5 (14:00) 0 0 0 0 0
04-08-2020 30 (17:50) 10 (07:00) 20 9.17 (14:10) 4.17 (17:20) 0 0 0 0 0
03-08-2020 27.6 (17:00) 17.2 (07:20) 22.4 8.89 (15:00) 4.44 (10:20) 0 0 0 0 0
02-08-2020 31.5 (15:50) 12.8 (00:00) 22.2 10.83 (15:50) 5 (16:40) 0 0 0 0 0
01-08-2020 33.9 (14:00) 13.1 (00:00) 23.5 8.89 (15:40) 5 (15:50) 0 0 0 0 0
31-07-2020 35.4 (16:50) 13.3 (06:40) 24.4 11.11 (19:30) 3.61 (13:50) 0 0 0 0 0
30-07-2020 35.7 (18:20) 15.8 (00:00) 25.8 13.61 (17:30) 6.39 (17:30) 0.5 0 0.5 0 0
29-07-2020 34.4 (17:10) 15.4 (00:00) 24.9 6.94 (15:10) 3.61 (17:50) 0 0 0 0 0
28-07-2020 32.2 (17:50) 16.3 (00:00) 24.3 8.06 (12:20) 3.89 (12:00) 0 0 0 0 0
27-07-2020 36.1 (17:40) 14.2 (00:00) 25.1 9.44 (18:00) 4.72 (17:10) 0 0 0 0 0
26-07-2020 35.4 (17:30) 14.2 (00:00) 24.8 8.61 (15:10) 3.33 (17:40) 0 0 0 0 0
25-07-2020 33.6 (17:30) 12.8 (00:00) 23.2 7.22 (19:20) 3.89 (19:20) 0 0 0 0 0
24-07-2020 -- (--) -- (--) -- -- (--) -- (--) -- -- -- 0 0
23-07-2020 -- (--) -- (--) -- -- (--) -- (--) -- -- -- -- --
22-07-2020 -- (--) -- (--) -- -- (--) -- (--) -- -- -- -- --
21-07-2020 -- (--) -- (--) -- -- (--) -- (--) -- -- -- -- --
20-07-2020 -- (--) -- (--) -- -- (--) -- (--) -- -- -- -- --
19-07-2020 -- (--) -- (--) -- -- (--) -- (--) -- -- -- -- --
18-07-2020 -- (--) -- (--) -- -- (--) -- (--) -- -- -- -- --
17-07-2020 -- (--) -- (--) -- -- (--) -- (--) -- -- -- -- --
16-07-2020 -- (--) -- (--) -- -- (--) -- (--) -- -- -- -- --
15-07-2020 -- (--) -- (--) -- -- (--) -- (--) -- 0 0 -- --
14-07-2020 -- (--) -- (--) -- -- (--) -- (--) -- 0 0 -- --

Gráficas

Temp. máximas Temp. mínimas Temp. medias Precipitaciones Rachas de viento máximas Velocidades máximas media en intervalos de 10 minutos

Datos horarios

Fecha y hora oficial Temperatura (ºC) Velocidad del viento (km/h) Dirección del viento Racha (km/h) Dirección de racha Precipitación (mm) Presión (hPa) Tendencia (hPa) Humedad (%)
2020-08-12 23:00:00 17.6 4 Noroeste 8 Sudoeste 0 903.2 1.7 70
2020-08-12 22:00:00 17.8 4 Nordeste 19 Noroeste 0.1 902.8 1.2 69
2020-08-12 21:00:00 18.6 14 Noroeste 27 Oeste 0 902.5 0.7 56
2020-08-12 20:00:00 22.5 7 Sudeste 21 Sudeste 0 901.5 -0.3 32
2020-08-12 19:00:00 23 6 Sur 21 Sudeste 0 901.6 -0.2 33
2020-08-12 18:00:00 23 13 Sur 31 Sudeste 0 901.8 -0.5 34
2020-08-12 17:00:00 23.7 15 Sur 31 Sudeste 0 901.8 -1 33
2020-08-12 16:00:00 24.5 13 Sudeste 31 Sudeste 0 901.8 -1.1 40
2020-08-12 15:00:00 22 14 Sudeste 30 Sudeste 0 902.3 -0.9 46
2020-08-12 14:00:00 22 11 Sudeste 23 Sudeste 0.1 902.8 -0.2 43
2020-08-12 13:00:00 21.4 9 Sudeste -- -- 0 902.9 -0.3 46
2020-08-12 12:00:00 20.4 4 Sudeste 13 Este 0 903.2 0.3 51
2020-08-12 11:00:00 18.4 3 Sudeste 8 Sudeste 0 903 0.4 58
2020-08-12 10:00:00 15.8 3 Oeste 6 Oeste 0 903.2 0.9 76
2020-08-12 09:00:00 12.9 3 Oeste 7 Oeste 0 902.9 0.9 85
2020-08-12 08:00:00 10.8 3 Oeste 7 Noroeste 0 902.6 0.9 88
2020-08-12 07:00:00 10.5 0 Calma 8 Nordeste 0 902.3 0.6 88
2020-08-12 06:00:00 10.8 3 Nordeste 7 Nordeste 0 902 0 88
2020-08-12 05:00:00 11.1 0 Calma 7 Oeste 0 901.7 -0.7 87
2020-08-12 04:00:00 11.7 0 Calma 7 Sudoeste 0 901.7 -0.7 86
2020-08-12 03:00:00 12.2 0 Calma 7 Noroeste 0 902 -1.3 86
2020-08-12 02:00:00 13.1 0 Calma 9 Oeste 0 902.4 -- 86
2020-08-12 01:00:00 13.5 0 Calma 8 Nordeste 0 902.4 -- 85
2020-08-12 00:00:00 14.1 2 Oeste 5 Sudoeste 0 903.3 -- 85
2020-08-11 23:00:00 14.1 2 Nordeste 15 Oeste 0 902.8 -- 83
2020-08-11 22:00:00 14.3 10 Oeste 22 Nordeste 0.1 902.5 -- 82
2020-08-11 21:00:00 15 7 Nordeste 26 Norte 0.6 901.6 -- 80
2020-08-11 20:00:00 15.9 6 Nordeste 11 Norte 2.9 903.8 -- 82
2020-08-11 19:00:00 16.9 3 Sudoeste 12 Sudoeste 2.3 903.8 -- 82
2020-08-11 18:00:00 17.4 5 Sudoeste 17 Norte 0 903.6 -- 79
2020-08-11 17:00:00 18.2 6 Nordeste 16 Nordeste 1.7 902.7 -- 77
2020-08-11 16:00:00 17.3 4 Sudeste 16 Oeste 2.1 904.4 -- 83
2020-08-11 15:00:00 16.9 5 Sudoeste 20 Oeste 0.7 904.7 -- 84
2020-08-11 14:00:00 16.4 8 Norte 17 Norte 2.8 903.5 -- 85
2020-08-11 13:00:00 16.9 7 Oeste 60 Sur 8.2 905.2 -- 77
2020-08-11 12:00:00 19.7 6 Noroeste 16 Oeste 0 902.1 -- 63
2020-08-11 11:00:00 20.6 4 Sudoeste 10 Oeste 0 902.2 -- 59
2020-08-11 10:00:00 20.2 4 Oeste 11 Oeste 0 901.9 -- 67
2020-08-11 09:00:00 16.8 3 Sudoeste 8 Oeste 0 902 -- 83
2020-08-11 08:00:00 15 0 Calma 5 Noroeste 0 902.1 -- 86
2020-08-11 07:00:00 15.9 0 Calma 8 Noroeste 0 902.2 -- 84
2020-08-11 06:00:00 16.8 4 Noroeste 10 Oeste 0 901.9 -- 85
2020-08-11 05:00:00 16.8 2 Oeste 8 Sudoeste 0 902.3 -- 83
2020-08-11 04:00:00 17 3 Oeste 8 Sur 0 902.9 -- 85
2020-08-11 03:00:00 17.4 0 Calma 14 Sudoeste 0.4 902.6 -- 84
2020-08-11 02:00:00 18.3 4 Norte 18 Noroeste 1 902.9 -- 77
2020-08-11 01:00:00 19.8 5 Noroeste 9 Noroeste 0 902.7 -- 59
2020-08-11 00:00:00 19.1 0 Calma 11 Noroeste 0 902.4 -- 59
2020-08-10 23:00:00 19.3 3 Oeste 8 Noroeste 0 901.9 -- 56
2020-08-10 22:00:00 22 2 Norte 6 Nordeste 0 901.4 -- 48
2020-08-10 21:00:00 25.1 2 Noroeste 11 Sudeste 0 901.3 -- 42
2020-08-10 20:00:00 27.2 5 Sudeste 13 Sur 0 901 -- 40
2020-08-10 19:00:00 26.9 5 Sur 24 Sudeste 0 901.4 -- 40
2020-08-10 18:00:00 26.9 4 Sur 31 Sudeste 0 901.8 -- 41
2020-08-10 17:00:00 26 10 Sur 26 Sudeste 0 902.4 -- 40
2020-08-10 16:00:00 25.7 9 Sudeste 33 Sudeste 0 902.7 -- 41
2020-08-10 15:00:00 26.6 14 Sudeste 29 Sur 0 902.8 -- 40
2020-08-10 14:00:00 26.5 9 Sur 25 Sudeste 0 903.3 -- 39
2020-08-10 13:00:00 26.8 13 Sudeste 33 Sudeste 0 902.8 -- 38
2020-08-10 12:00:00 26.6 8 Sudeste 21 Sudeste 0 902.4 -- 40
2020-08-10 11:00:00 25.5 3 Sudeste 7 Sudeste 0 902.2 -- 44
2020-08-10 10:00:00 21 0 Calma 9 Este 0 902.3 -- 54
2020-08-10 09:00:00 18.5 4 Norte 8 Norte 0 902.3 -- 56
2020-08-10 08:00:00 18.5 3 Noroeste 12 Oeste 0 901.3 -- 54
2020-08-10 07:00:00 17.2 4 Sur 9 Nordeste 0 901.5 -- 55
2020-08-10 06:00:00 16.8 0 Calma 9 Sudeste 0 902 -- 55
2020-08-10 05:00:00 16.8 3 Oeste 5 Oeste 0 901.7 -- 53
2020-08-10 04:00:00 18.4 3 Sudeste 17 Noroeste 0 901.7 -- 48
2020-08-10 03:00:00 18 0 Calma 7 Sudeste 0 901.4 -- 48
2020-08-10 02:00:00 18.1 0 Calma 6 Noroeste 0 901.7 -- 46
2020-08-10 01:00:00 19.4 4 Noroeste 6 Noroeste 0 902 -- 41
2020-08-10 00:00:00 20.8 4 Oeste 9 Oeste 0 902.1 -- 37
2020-08-09 23:00:00 22.5 0 Calma 7 Oeste 0 902.5 -- 32
2020-08-09 22:00:00 25.7 5 Noroeste 9 Oeste 0 902.2 -- 27
2020-08-09 21:00:00 30.6 4 Oeste 20 Sur 0 901.8 -- 26
2020-08-09 20:00:00 32.7 12 Sur 31 Sur 0 901.6 -- 25
2020-08-09 19:00:00 33.7 11 Sur 31 Sur 0 901.8 -- 24
2020-08-09 18:00:00 34 15 Sur 31 Sur 0 902.2 -- 24
2020-08-09 17:00:00 34.6 17 Sur 40 Sudeste 0 903.1 -- 26
2020-08-09 16:00:00 33.3 15 Sur 29 Sur 0 903.5 -- 27
2020-08-09 15:00:00 33 15 Sur 31 Sudeste 0 904 -- 29
2020-08-09 14:00:00 32.6 15 Sudeste 29 Sur 0 904.5 -- 30
2020-08-09 13:00:00 31.7 14 Sudeste 28 Sudeste 0 904.8 -- 31
2020-08-09 12:00:00 30.7 4 Sudeste 11 Este 0 905.1 -- 33
2020-08-09 11:00:00 29.6 2 Sudeste 8 Sudeste 0 905.5 -- 37
2020-08-09 10:00:00 24.5 3 Oeste 9 Oeste 0 905.9 -- 46
2020-08-09 09:00:00 19.8 5 Oeste 10 Oeste 0 905.9 -- 57
2020-08-09 08:00:00 16.5 0 Calma 6 Noroeste 0 905.7 -- 66
2020-08-09 07:00:00 16.6 2 Noroeste 6 Oeste 0 905.3 -- 64
2020-08-09 06:00:00 16.9 3 Noroeste 6 Noroeste 0 905.4 -- 62
2020-08-09 05:00:00 17.6 0 Calma 6 Noroeste 0 905.7 -- 57
2020-08-09 04:00:00 18.2 0 Calma 7 Nordeste 0 906.1 -- 53
2020-08-09 03:00:00 20.3 0 Calma 10 Sur 0 906.5 -- 48
2020-08-09 02:00:00 21.6 8 Noroeste 16 Noroeste 0 906.4 -- 45
2020-08-09 01:00:00 21.2 0 Calma 6 Noroeste 0 906.8 -- 43
2020-08-09 00:00:00 22.8 0 Calma 5 Oeste 0 906.9 -- 40
2020-08-08 23:00:00 23.7 3 Noroeste 7 Norte 0 906.7 -- 39
2020-08-08 22:00:00 26.5 2 Norte 10 Noroeste 0 906.3 -- 33
2020-08-08 21:00:00 30.3 0 Calma 18 Sur 0 906.1 -- 27
2020-08-08 20:00:00 31 9 Sudeste 19 Sudeste 0 906.1 -- 26
2020-08-08 19:00:00 33 3 Oeste 13 Sur 0 906.3 -- 24
2020-08-08 18:00:00 31.7 6 Sur 27 Sudeste 0 906.7 -- 28
2020-08-08 17:00:00 31.7 9 Sur 25 Sur 0 907.6 -- 31
2020-08-08 16:00:00 31.6 5 Sudeste 17 Sudeste 0 907.6 -- 32
2020-08-08 15:00:00 31.2 8 Sudeste 26 Sur 0 908.2 -- 32
2020-08-08 14:00:00 31.3 9 Sudeste 24 Sudeste 0 908.2 -- 33
2020-08-08 13:00:00 30.9 10 Sudeste 21 Sudeste 0 908.3 -- 34
2020-08-08 12:00:00 30.7 2 Sudeste 13 Nordeste 0 908.5 -- 36
2020-08-08 11:00:00 28.3 2 Oeste 8 Oeste 0 908.3 -- 40
2020-08-08 10:00:00 25.9 0 Calma 5 Sudeste 0 908.4 -- 46
2020-08-08 09:00:00 21.4 0 Calma 6 Nordeste 0 908.5 -- 58
2020-08-08 08:00:00 17.9 0 Calma 9 Oeste 0 908.3 -- 66
2020-08-08 07:00:00 16.8 3 Oeste 5 Oeste 0 907.9 -- 66
2020-08-08 06:00:00 18.3 0 Calma 9 Oeste 0 907.7 -- 59
2020-08-08 05:00:00 18.2 4 Oeste 7 Oeste 0 907.7 -- 57
2020-08-08 04:00:00 20.4 0 Calma 12 Sur 0 907.8 -- 52
2020-08-08 03:00:00 21.5 3 Sur 12 Noroeste 0 907.6 -- 49
2020-08-08 02:00:00 22.3 0 Calma 10 Oeste 0 907.7 -- 47
2020-08-08 01:00:00 23.1 4 Noroeste 9 Oeste 0 907.4 -- 46
2020-08-08 00:00:00 23.6 0 Calma 8 Noroeste 0 907.1 -- 41
2020-08-07 23:00:00 25 0 Calma 6 Nordeste 0 906.8 -- 38
2020-08-07 22:00:00 28 0 Calma 12 Sudoeste 0 906.1 -- 33
2020-08-07 21:00:00 31.9 6 Sur 22 Sudoeste 0 905.7 -- 28
2020-08-07 20:00:00 33.6 12 Sur 27 Sur 0 905.5 -- 26
2020-08-07 19:00:00 35 12 Sudoeste 34 Sur 0 905.4 -- 26
2020-08-07 18:00:00 34.5 14 Sur 31 Sur 0 905.5 -- 27
2020-08-07 17:00:00 34.2 11 Sudeste 29 Sudoeste 0 905.8 -- 28
2020-08-07 16:00:00 34.1 12 Sur 29 Sudeste 0 906.2 -- 30
2020-08-07 15:00:00 33.6 11 Sur 26 Sudeste 0 906.4 -- 32
2020-08-07 14:00:00 32.2 7 Sur 18 Sudeste 0 906.9 -- 35
2020-08-07 13:00:00 31.4 6 Sudeste 17 Sudeste 0 907 -- 37
2020-08-07 12:00:00 29.8 4 Sudeste 15 Sur 0 907.2 -- 41
2020-08-07 11:00:00 28.1 5 Sudeste 14 Sudeste 0 907.1 -- 43
2020-08-07 10:00:00 25.4 0 Calma 5 Sudeste 0 907 -- 50
2020-08-07 09:00:00 20.9 0 Calma 6 Sudoeste 0 906.7 -- 60
2020-08-07 08:00:00 16.6 0 Calma 2 Noroeste 0 906.3 -- 69
2020-08-07 07:00:00 16.6 0 Calma 5 Noroeste 0 906.2 -- 68
2020-08-07 06:00:00 16.9 3 Noroeste 8 Oeste 0 905.6 -- 66
2020-08-07 05:00:00 16.9 0 Calma 6 Oeste 0 905.8 -- 63
2020-08-07 04:00:00 17.5 2 Oeste 4 Oeste 0 905.8 -- 61
2020-08-07 03:00:00 18.7 0 Calma 6 Oeste 0 905.8 -- 56
2020-08-07 02:00:00 19.7 0 Calma 9 Noroeste 0 905.5 -- 53
2020-08-07 01:00:00 19.7 3 Noroeste 6 Oeste 0 905.4 -- 51
2020-08-07 00:00:00 21.1 3 Noroeste 4 Noroeste 0 904.9 -- 47
2020-08-06 23:00:00 22.8 0 Calma 10 Noroeste 0 904.6 -- 42
2020-08-06 22:00:00 27 5 Norte 9 Noroeste 0 903.9 -- 35
2020-08-06 21:00:00 31.5 4 Sur 16 Sudoeste 0 903.7 -- 28
2020-08-06 20:00:00 32.9 8 Sur 23 Sur 0 903.4 -- 27
2020-08-06 19:00:00 33.3 12 Sudeste 23 Sudeste 0 903.4 -- 26
2020-08-06 18:00:00 33.6 12 Sur 33 Sur 0 903.4 -- 26
2020-08-06 17:00:00 33.9 9 Sudeste 28 Sur 0 903.4 -- 29
2020-08-06 16:00:00 32.8 10 Sur 30 Sudeste 0 903.9 -- 32
2020-08-06 15:00:00 32 12 Sudeste 27 Sur 0 904.2 -- 36
2020-08-06 14:00:00 31.5 11 Sudeste 23 Sur 0 904.5 -- 40
2020-08-06 13:00:00 29.3 7 Sudeste 14 Este 0 904.8 -- 41
2020-08-06 12:00:00 29.4 5 Sur 14 Sur 0 904.9 -- 41
2020-08-06 11:00:00 26.7 3 Nordeste 6 Este 0 905 -- 42
2020-08-06 10:00:00 22.8 0 Calma 4 Sudeste 0 904.9 -- 48
2020-08-06 09:00:00 20.7 0 Calma 8 Oeste 0 904.5 -- 52
2020-08-06 08:00:00 15.2 3 Oeste 8 Oeste 0 904.1 -- 64
2020-08-06 07:00:00 14 2 Oeste 4 Oeste 0 903.8 -- 63
2020-08-06 06:00:00 15 0 Calma 7 Oeste 0 903.4 -- 60
2020-08-06 05:00:00 16.8 2 Nordeste 12 Noroeste 0 903.1 -- 56
2020-08-06 04:00:00 16.9 0 Calma 11 Oeste 0 903 -- 54
2020-08-06 03:00:00 17.4 6 Noroeste 9 Noroeste 0 902.9 -- 54
2020-08-06 02:00:00 17.9 2 Nordeste 8 Oeste 0 902.7 -- 51
2020-08-06 01:00:00 18.8 2 Oeste 7 Noroeste 0 902.6 -- 45
2020-08-06 00:00:00 20.4 4 Oeste 6 Noroeste 0 902.5 -- 39
2020-08-05 23:00:00 23.7 0 Calma 8 Oeste 0 902.6 -- 33
2020-08-05 22:00:00 26.9 3 Sudeste 15 Nordeste 0 901.8 -- 27
2020-08-05 21:00:00 30.3 0 Calma 10 Noroeste 0 901.3 -- 25
2020-08-05 20:00:00 32.4 5 Noroeste 14 Norte 0 901.1 -- 22
2020-08-05 19:00:00 33.2 7 Noroeste 19 Noroeste 0 900.8 -- 21
2020-08-05 18:00:00 33.2 6 Noroeste 18 Norte 0 900.9 -- 22
2020-08-05 17:00:00 33.1 6 Sudeste 22 Este 0 901.1 -- 22
2020-08-05 16:00:00 33 4 Noroeste 18 Oeste 0 901.4 -- 23
2020-08-05 15:00:00 31.6 0 Calma 17 Noroeste 0 901.6 -- 24
2020-08-05 14:00:00 31 9 Sur 18 Sur 0 902 -- 26
2020-08-05 13:00:00 29.6 2 Nordeste 16 Nordeste 0 902.4 -- 26
2020-08-05 12:00:00 28.1 3 Sudeste 12 Sudeste 0 902.8 -- 29
2020-08-05 11:00:00 26.5 0 Calma 7 Nordeste 0 902.9 -- 35
2020-08-05 10:00:00 22.5 0 Calma 8 Oeste 0 902.9 -- 43
2020-08-05 09:00:00 17.4 5 Oeste 8 Oeste 0 902.9 -- 57
2020-08-05 08:00:00 11.9 0 Calma 6 Noroeste 0 902.8 -- 73
2020-08-05 07:00:00 11.4 4 Noroeste 9 Noroeste 0 902.1 -- 73
2020-08-05 06:00:00 12 4 Noroeste 7 Noroeste 0 902.1 -- 68
2020-08-05 05:00:00 13.6 2 Noroeste 7 Noroeste 0 902.1 -- 63
2020-08-05 04:00:00 13.6 0 Calma 9 Oeste 0 902.2 -- 60
2020-08-05 03:00:00 15.5 6 Noroeste 11 Oeste 0 902.5 -- 56
2020-08-05 02:00:00 15.3 3 Noroeste 6 Noroeste 0 902.8 -- 52
2020-08-05 01:00:00 16.8 3 Noroeste 7 Oeste 0 902.7 -- 48
2020-08-05 00:00:00 17.6 3 Noroeste 7 Nordeste 0 902.5 -- 43
2020-08-04 23:00:00 20.5 0 Calma 19 Noroeste 0 902.7 -- 37
2020-08-04 22:00:00 24.1 9 Norte 19 Norte 0 902.3 -- 33
2020-08-04 21:00:00 26 5 Norte 18 Norte 0 902.1 -- 29
2020-08-04 20:00:00 28.3 7 Norte 28 Noroeste 0 901.9 -- 27
2020-08-04 19:00:00 29 12 Noroeste 23 Noroeste 0 901.7 -- 27
2020-08-04 18:00:00 29.4 8 Noroeste 27 Noroeste 0 901.8 -- 27
2020-08-04 17:00:00 29.5 10 Noroeste 31 Noroeste 0 901.9 -- 27
2020-08-04 16:00:00 29.2 8 Norte 26 Norte 0 902.5 -- 30
2020-08-04 15:00:00 28.7 4 Norte 59 Oeste 0 902.9 -- 32
2020-08-04 14:00:00 27.2 3 Noroeste 19 Nordeste 0 903.6 -- 34
2020-08-04 13:00:00 25.7 9 Noroeste 22 Norte 0 903.9 -- 36
2020-08-04 12:00:00 25.5 8 Norte 26 Norte 0 903.8 -- 38
2020-08-04 11:00:00 23.8 2 Sudeste 10 Sudeste 0 903.9 -- 41
2020-08-04 10:00:00 21.1 0 Calma 6 Sudeste 0 904.3 -- 48
2020-08-04 09:00:00 17.4 2 Este 5 Nordeste 0 904.1 -- 62
2020-08-04 08:00:00 12.3 2 Noroeste 6 Oeste 0 903.9 -- 79
2020-08-04 07:00:00 10.2 3 Noroeste 5 Noroeste 0 903.7 -- 79
2020-08-04 06:00:00 11.1 0 Calma 3 Noroeste 0 903.7 -- 76
2020-08-04 05:00:00 11.9 0 Calma 6 Noroeste 0 903.8 -- 72
2020-08-04 04:00:00 12.9 0 Calma 8 Oeste 0 904 -- 67
2020-08-04 03:00:00 13 3 Noroeste 7 Sudoeste 0 904.1 -- 62
2020-08-04 02:00:00 15.5 5 Oeste 7 Sudoeste 0 904.2 -- 55
2020-08-04 01:00:00 18.2 4 Oeste 17 Noroeste 0 904 -- 47
2020-08-04 00:00:00 19.9 9 Norte 31 Noroeste 0 903.7 -- 43
2020-08-03 23:00:00 21.1 13 Norte 26 Norte 0 903.3 -- 41
2020-08-03 22:00:00 21.9 10 Norte 23 Norte 0 902.8 -- 38
2020-08-03 21:00:00 24.1 8 Norte 23 Norte 0 902.9 -- 35
2020-08-03 20:00:00 25.9 13 Noroeste 27 Noroeste 0 902.5 -- 33
2020-08-03 19:00:00 26.4 13 Noroeste 24 Noroeste 0 902.7 -- 32
2020-08-03 18:00:00 26.7 15 Noroeste 30 Noroeste 0 902.9 -- 31
2020-08-03 17:00:00 27 14 Noroeste 30 Oeste 0 903 -- 31
2020-08-03 16:00:00 27 11 Noroeste 27 Noroeste 0 903.3 -- 32
2020-08-03 15:00:00 25.7 12 Noroeste 32 Norte 0 903.6 -- 34
2020-08-03 14:00:00 24.5 14 Noroeste 27 Oeste 0 904.2 -- 35
2020-08-03 13:00:00 23.7 13 Noroeste 26 Noroeste 0 904.8 -- 37
2020-08-03 12:00:00 22 15 Noroeste 29 Noroeste 0 904.8 -- 36
2020-08-03 11:00:00 22.1 14 Noroeste 32 Oeste 0 904.2 -- 37
2020-08-03 10:00:00 21.4 13 Noroeste 26 Noroeste 0 904.1 -- 37
2020-08-03 09:00:00 21.2 4 Norte 15 Oeste 0 903.7 -- 42
2020-08-03 08:00:00 18.6 6 Noroeste 20 Norte 0 903.4 -- 47
2020-08-03 07:00:00 18 10 Norte 22 Norte 0 903.3 -- 46
2020-08-03 06:00:00 19.4 7 Norte 18 Norte 0 903.4 -- 43
2020-08-03 05:00:00 19.5 6 Norte 16 Noroeste 0 903.1 -- 43
2020-08-03 04:00:00 19.5 0 Calma 24 Oeste 0 903.5 -- 43
2020-08-03 03:00:00 19.3 6 Oeste 14 Oeste 0 903.5 -- 46
2020-08-03 02:00:00 19.6 5 Noroeste 19 Noroeste 0 903.9 -- 47
2020-08-03 01:00:00 19.3 6 Noroeste 24 Noroeste 0 904.2 -- 48
2020-08-03 00:00:00 20.1 11 Noroeste 30 Noroeste 0 904.2 -- 48
2020-08-02 23:00:00 20.6 15 Noroeste 37 Noroeste 0 903.9 -- 46
2020-08-02 22:00:00 21.3 17 Noroeste 34 Noroeste 0 903.9 -- 43
2020-08-02 21:00:00 23.6 8 Noroeste 36 Noroeste 0 903.7 -- 41
2020-08-02 20:00:00 24.8 12 Noroeste 28 Noroeste 0 902.7 -- 39
2020-08-02 19:00:00 26.6 12 Noroeste 28 Norte 0 902.8 -- 38
2020-08-02 18:00:00 28 15 Noroeste 32 Noroeste 0 903.1 -- 36
2020-08-02 17:00:00 30.6 15 Noroeste 35 Noroeste 0 903.2 -- 31
2020-08-02 16:00:00 31 13 Noroeste 39 Noroeste 0 903.3 -- 31
2020-08-02 15:00:00 30.8 7 Norte 28 Nordeste 0 903.4 -- 31
2020-08-02 14:00:00 29.5 13 Noroeste 28 Noroeste 0 904.6 -- 35
2020-08-02 13:00:00 28.3 14 Noroeste 28 Noroeste 0 904.5 -- 37
2020-08-02 12:00:00 28.3 9 Noroeste 22 Nordeste 0 904.2 -- 35
2020-08-02 11:00:00 27.8 7 Nordeste 18 Norte 0 904.4 -- 37
2020-08-02 10:00:00 23.5 3 Sudoeste 8 Sudoeste 0 904.6 -- 45
2020-08-02 09:00:00 19.2 3 Oeste 10 Oeste 0 904.7 -- 59
2020-08-02 08:00:00 14.2 0 Calma 5 Oeste 0 904.6 -- 73
2020-08-02 07:00:00 12.8 4 Noroeste 6 Oeste 0 904.7 -- 71
2020-08-02 06:00:00 14.2 0 Calma 6 Oeste 0 904.7 -- 66
2020-08-02 05:00:00 15 3 Oeste 4 Oeste 0 904.7 -- 64
2020-08-02 04:00:00 16.7 0 Calma 5 Noroeste 0 904.7 -- 57
2020-08-02 03:00:00 17.5 0 Calma 7 Noroeste 0 904.7 -- 53
2020-08-02 02:00:00 19.1 0 Calma 8 Noroeste 0 905.2 -- 46
2020-08-02 01:00:00 21.2 2 Noroeste 14 Oeste 0 905.4 -- 41
2020-08-02 00:00:00 22.3 2 Oeste 23 Noroeste 0 905.3 -- 37
2020-08-01 23:00:00 23.5 15 Noroeste 22 Noroeste 0 905.2 -- 35
2020-08-01 22:00:00 24.6 11 Noroeste 19 Noroeste 0 905.1 -- 31
2020-08-01 21:00:00 29.3 6 Noroeste 21 Oeste 0 905.1 -- 23
2020-08-01 20:00:00 31.2 10 Noroeste 26 Oeste 0 905.3 -- 21
2020-08-01 19:00:00 32.1 12 Noroeste 24 Oeste 0 905.3 -- 20
2020-08-01 18:00:00 32.9 13 Oeste 30 Noroeste 0 905.4 -- 19
2020-08-01 17:00:00 33.6 13 Oeste 30 Oeste 0 905.7 -- 18
2020-08-01 16:00:00 33.6 15 Noroeste 32 Noroeste 0 905.5 -- 20
2020-08-01 15:00:00 33.4 15 Oeste 31 Oeste 0 905.6 -- 19
2020-08-01 14:00:00 33.2 15 Noroeste 29 Oeste 0 905.8 -- 18
2020-08-01 13:00:00 31.9 0 Calma 19 Noroeste 0 906 -- 26
2020-08-01 12:00:00 30.7 6 Noroeste 17 Norte 0 906.2 -- 26
2020-08-01 11:00:00 29.6 2 Este 7 Sudeste 0 905.9 -- 30
2020-08-01 10:00:00 25.4 0 Calma 5 Sudeste 0 905.8 -- 40
2020-08-01 09:00:00 21.3 2 Sudeste 5 Oeste 0 905.8 -- 51
2020-08-01 08:00:00 14.9 0 Calma 5 Nordeste 0 905.4 -- 59
2020-08-01 07:00:00 13.4 0 Calma 6 Noroeste 0 905 -- 59
2020-08-01 06:00:00 14.3 0 Calma 6 Oeste 0 905 -- 57
2020-08-01 05:00:00 15.9 2 Oeste 8 Oeste 0 904.7 -- 53
2020-08-01 04:00:00 15.5 0 Calma 6 Noroeste 0 904.8 -- 51
2020-08-01 03:00:00 16.8 0 Calma 6 Noroeste 0 904.9 -- 48
2020-08-01 02:00:00 17.8 0 Calma 7 Noroeste 0 905.4 -- 45
2020-08-01 01:00:00 19.5 0 Calma 6 Noroeste 0 905.6 -- 42
2020-08-01 00:00:00 19.9 3 Noroeste 6 Noroeste 0 905.5 -- 37
2020-07-31 23:00:00 22.4 0 Calma 9 Este 0 905.3 -- 32
2020-07-31 22:00:00 27.6 3 Norte 14 Oeste 0 904.5 -- 26
2020-07-31 21:00:00 31.7 0 Calma 15 Noroeste 0 904.4 -- 23
2020-07-31 20:00:00 34.2 7 Noroeste 40 Sudeste 0 904 -- 21
2020-07-31 19:00:00 34.4 4 Este 26 Este 0 903.9 -- 20
2020-07-31 18:00:00 33.8 5 Sudeste 27 Sur 0 904.1 -- 21
2020-07-31 17:00:00 34.9 3 Sur 25 Sur 0 904.4 -- 21
2020-07-31 16:00:00 34 9 Sur 24 Sur 0 904.9 -- 23
2020-07-31 15:00:00 33.2 9 Sudeste 29 Este 0 904.8 -- 25
2020-07-31 14:00:00 32.2 10 Este 25 Este 0 905.3 -- 27
2020-07-31 13:00:00 31.4 9 Este 24 Sudeste 0 905.2 -- 28
2020-07-31 12:00:00 30.2 9 Sudeste 19 Sudeste 0 905.2 -- 31
2020-07-31 11:00:00 28.5 3 Sudeste 8 Sudeste 0 905.4 -- 36
2020-07-31 10:00:00 24.7 0 Calma 5 Sudeste 0 905.4 -- 45
2020-07-31 09:00:00 20.5 0 Calma 5 Oeste 0 905.1 -- 57
2020-07-31 08:00:00 15.9 3 Oeste 9 Noroeste 0 904.7 -- 73
2020-07-31 07:00:00 13.6 4 Noroeste 8 Oeste 0 904.5 -- 76
2020-07-31 06:00:00 14.2 0 Calma 5 Noroeste 0 904.5 -- 73
2020-07-31 05:00:00 14.8 3 Noroeste 6 Noroeste 0 904.2 -- 66
2020-07-31 04:00:00 16.8 4 Oeste 7 Noroeste 0 903.7 -- 61
2020-07-31 03:00:00 17.9 2 Nordeste 8 Oeste 0 904 -- 56
2020-07-31 02:00:00 18.9 4 Noroeste 8 Oeste 0 903.9 -- 55
2020-07-31 01:00:00 19.4 3 Oeste 9 Este 0 904 -- 53
2020-07-31 00:00:00 20.8 7 Oeste 11 Este 0 903.7 -- 53
2020-07-30 23:00:00 21.7 5 Oeste 11 Oeste 0 903.8 -- 50
2020-07-30 22:00:00 24.5 0 Calma 11 Nordeste 0 902.5 -- 45
2020-07-30 21:00:00 28.5 3 Nordeste 13 Este 0 901.8 -- 32
2020-07-30 20:00:00 29.1 5 Nordeste -- -- 0 901.5 -- 31
2020-07-30 19:00:00 34.7 13 Sur 36 Sudeste 0 900.6 -- 23
2020-07-30 18:00:00 34.4 18 Sur 49 Sur 0 901.4 -- 23
2020-07-30 17:00:00 34.4 17 Sur 39 Sudeste 0 902 -- 24
2020-07-30 16:00:00 33.8 16 Sur 44 Sudeste 0 902.7 -- 26
2020-07-30 15:00:00 31.9 20 Sur 35 Sur 0 903.8 -- 26
2020-07-30 14:00:00 33.3 13 Sur 30 Sudeste 0 903.9 -- 28
2020-07-30 13:00:00 31.9 5 Sudeste 17 Sudeste 0 904.1 -- 31
2020-07-30 12:00:00 30 6 Sudeste 14 Sudeste 0 904.3 -- 36
2020-07-30 11:00:00 27.7 4 Sudoeste 10 Sudeste 0 904.7 -- 42
2020-07-30 10:00:00 25 3 Oeste 7 Sur 0 904.9 -- 52
2020-07-30 09:00:00 20.4 5 Oeste 8 Oeste 0.5 904.4 -- 65
2020-07-30 08:00:00 16.9 2 Noroeste 6 Noroeste 0 904.6 -- 75
2020-07-30 07:00:00 15.8 0 Calma 5 Noroeste 0 904.1 -- 73
2020-07-30 06:00:00 17 0 Calma 7 Noroeste 0 903.7 -- 70
2020-07-30 05:00:00 17.5 2 Noroeste 7 Oeste 0 903.8 -- 66
2020-07-30 04:00:00 19.2 0 Calma 9 Noroeste 0 903.6 -- 60
2020-07-30 03:00:00 19.9 0 Calma 9 Noroeste 0 903.7 -- 54
2020-07-30 02:00:00 20.8 5 Oeste 10 Oeste 0 904 -- 51
2020-07-30 01:00:00 21.2 5 Noroeste 13 Oeste 0 904.1 -- 46
2020-07-30 00:00:00 22.3 5 Oeste 8 Oeste 0 903.8 -- 42
2020-07-29 23:00:00 23.4 0 Calma 7 Noroeste 0 903.4 -- 39
2020-07-29 22:00:00 25.7 0 Calma 7 Noroeste 0 902.7 -- 33
2020-07-29 21:00:00 31.1 0 Calma 14 Sudeste 0 902.7 -- 26
2020-07-29 20:00:00 32.3 9 Sudeste 23 Sudeste 0 902.3 -- 25
2020-07-29 19:00:00 32.9 11 Sudeste 25 Sudeste 0 902.5 -- 25
2020-07-29 18:00:00 33.5 9 Sur 25 Sudeste 0 902.8 -- 25
2020-07-29 17:00:00 34 6 Sur 23 Este 0 903.1 -- 26
2020-07-29 16:00:00 33.1 5 Sur 25 Sudeste 0 903.5 -- 27
2020-07-29 15:00:00 31.5 8 Sudeste 23 Sudeste 0 903.8 -- 29
2020-07-29 14:00:00 31.7 6 Sudeste 24 Sudeste 0 904 -- 29
2020-07-29 13:00:00 31.7 9 Sudeste 18 Este 0 904.4 -- 32
2020-07-29 12:00:00 30.5 4 Sudeste 11 Sudeste 0 904.8 -- 35
2020-07-29 11:00:00 28.1 3 Sudeste 8 Sudeste 0 904.4 -- 40
2020-07-29 10:00:00 25.3 0 Calma 4 Sur 0 904.6 -- 49
2020-07-29 09:00:00 21.5 0 Calma 4 Oeste 0 904.4 -- 61
2020-07-29 08:00:00 17.4 0 Calma 7 Noroeste 0 904.2 -- 74
2020-07-29 07:00:00 16.4 3 Oeste 7 Noroeste 0 903.8 -- 76
2020-07-29 06:00:00 16.3 0 Calma 6 Noroeste 0 903.6 -- 73
2020-07-29 05:00:00 16.9 5 Noroeste 7 Noroeste 0 903.5 -- 70
2020-07-29 04:00:00 18.1 0 Calma 7 Noroeste 0 903.5 -- 64
2020-07-29 03:00:00 18.4 5 Noroeste 7 Norte 0 903.5 -- 62
2020-07-29 02:00:00 20.3 5 Oeste 12 Oeste 0 903.8 -- 56
2020-07-29 01:00:00 20.9 3 Norte 9 Sudoeste 0 903.8 -- 55
2020-07-29 00:00:00 20.8 0 Calma 8 Oeste 0 904 -- 54
2020-07-28 23:00:00 22.1 0 Calma 8 Sur 0 903.8 -- 47
2020-07-28 22:00:00 24 3 Noroeste 5 Noroeste 0 903.4 -- 43
2020-07-28 21:00:00 29.1 4 Noroeste 11 Nordeste 0 903.1 -- 34
2020-07-28 20:00:00 31.4 5 Nordeste 12 Nordeste 0 903 -- 31
2020-07-28 19:00:00 31.8 3 Sudoeste 15 Sur 0 903.2 -- 30
2020-07-28 18:00:00 31.3 6 Sur 21 Sudeste 0 903.4 -- 31
2020-07-28 17:00:00 31.4 5 Noroeste 15 Sudoeste 0 903.5 -- 33
2020-07-28 16:00:00 29.3 6 Sudoeste 20 Sudoeste 0 903.9 -- 36
2020-07-28 15:00:00 29.1 5 Sudoeste 22 Sudeste 0 903.9 -- 36
2020-07-28 14:00:00 29.4 8 Sudeste 24 Sudeste 0 903.7 -- 36
2020-07-28 13:00:00 29.6 11 Sudeste 29 Sudeste 0 903.9 -- 34
2020-07-28 12:00:00 29.3 14 Sudeste 28 Sudeste 0 903.9 -- 36
2020-07-28 11:00:00 28.4 4 Sudeste 12 Este 0 904 -- 36
2020-07-28 10:00:00 25.4 0 Calma 6 Oeste 0 904 -- 43
2020-07-28 09:00:00 22.1 0 Calma 6 Oeste 0 903.9 -- 55
2020-07-28 08:00:00 17.6 5 Oeste 10 Oeste 0 903.8 -- 65
2020-07-28 07:00:00 16.9 0 Calma 6 Noroeste 0 903.5 -- 64
2020-07-28 06:00:00 17 0 Calma 10 Noroeste 0 903.1 -- 61
2020-07-28 05:00:00 18.6 5 Noroeste 10 Oeste 0 903.2 -- 57
2020-07-28 04:00:00 18.7 4 Oeste 6 Oeste 0 903 -- 54
2020-07-28 03:00:00 20.8 3 Nordeste 9 Noroeste 0 903.1 -- 50
2020-07-28 02:00:00 21 3 Oeste 10 Sudoeste 0 903.6 -- 48
2020-07-28 01:00:00 21.8 4 Noroeste 7 Noroeste 0 903.7 -- 46
2020-07-28 00:00:00 22.1 4 Oeste 6 Oeste 0 903.4 -- 42
2020-07-27 23:00:00 24.6 0 Calma 6 Noroeste 0 903.7 -- 36
2020-07-27 22:00:00 28.2 0 Calma 16 Noroeste 0 903.2 -- 30
2020-07-27 21:00:00 33.5 3 Sudoeste 23 Sudoeste 0 903.2 -- 24
2020-07-27 20:00:00 35 9 Sur 24 Sur 0 903.3 -- 23
2020-07-27 19:00:00 35.4 14 Sudoeste 31 Sudoeste 0 903.4 -- 23
2020-07-27 18:00:00 35.5 8 Sur 34 Sur 0 903.7 -- 23
2020-07-27 17:00:00 35.3 16 Sur 32 Sudeste 0 904 -- 24
2020-07-27 16:00:00 35.2 15 Sudeste 30 Sur 0 904.3 -- 24
2020-07-27 15:00:00 34.4 13 Sur 29 Sur 0 904.6 -- 26
2020-07-27 14:00:00 33.5 13 Sudeste 31 Sudeste 0 905.1 -- 29
2020-07-27 13:00:00 32.1 6 Sudeste 17 Sudeste 0 905.5 -- 33
2020-07-27 12:00:00 30.2 2 Sur 13 Este 0 905.5 -- 35
2020-07-27 09:00:00 20.9 0 Calma 10 Oeste 0 905 0.4 53
2020-07-27 08:00:00 16.4 3 Oeste 8 Sudoeste 0 904.8 0.3 65
2020-07-27 07:00:00 14.7 0 Calma 9 Oeste 0 904.7 0.3 64
2020-07-27 06:00:00 14.6 4 Noroeste 6 Noroeste 0 904.6 0.5 62
2020-07-27 05:00:00 16.6 0 Calma 9 Noroeste 0 904.5 0.2 59
2020-07-27 04:00:00 17.5 2 Norte 15 Noroeste 0 904.4 0.1 55
2020-07-27 03:00:00 17.2 0 Calma 8 Oeste 0 904.1 -0.3 54
2020-07-27 02:00:00 18 2 Norte 6 Noroeste 0 904.3 0.1 51
2020-07-27 01:00:00 20 3 Noroeste 9 Oeste 0 904.3 0.7 46
2020-07-27 00:00:00 21 4 Noroeste 6 Sudoeste 0 904.4 1 41
2020-07-26 23:00:00 22.1 5 Noroeste 8 Noroeste 0 904.2 1.1 38
2020-07-26 22:00:00 27.4 3 Sur 12 Norte 0 903.6 0.5 28
2020-07-26 21:00:00 31.4 5 Noroeste 16 Noroeste 0 903.4 0.3 25
2020-07-26 20:00:00 33.6 6 Noroeste 14 Noroeste 0 903.1 -0.5 22
2020-07-26 19:00:00 34.5 4 Sudeste 26 Sur 0 903.1 -0.7 20
2020-07-26 18:00:00 34.2 8 Sudeste 27 Sur 0 903.1 -0.9 20
2020-07-26 17:00:00 34.6 5 Sudeste 20 Sudeste 0 903.6 -0.7 20
2020-07-26 16:00:00 34.8 3 Sudeste 31 Este 0 903.8 -0.7 21
2020-07-26 15:00:00 33.8 4 Sur 25 Sur 0 904 -0.8 22
2020-07-26 14:00:00 32.1 8 Sudeste 23 Sudeste 0 904.3 -0.3 24
2020-07-26 13:00:00 31.6 8 Sudeste 24 Sudeste 0 904.5 -0.3 25
2020-07-26 12:00:00 30.6 2 Sudeste 12 Sudeste 0 904.8 0.4 26
2020-07-26 11:00:00 29.2 2 Sudeste 7 Sudeste 0 904.6 0.6 28
2020-07-26 10:00:00 24.4 3 Sudoeste 7 Oeste 0 904.8 -- 36
2020-07-26 09:00:00 20.4 3 Oeste 9 Oeste 0 904.4 -- 43
2020-07-26 08:00:00 16.7 0 Calma 5 Noroeste 0 904 -- 52
2020-07-26 07:00:00 14.4 2 Noroeste 8 Noroeste 0 903.7 -- 51
2020-07-26 06:00:00 15.5 2 Noroeste 7 Norte 0 903.4 -- 46
2020-07-26 05:00:00 17 4 Noroeste 8 Noroeste 0 903.1 -- 43
2020-07-26 04:00:00 17.8 5 Noroeste 8 Noroeste 0 902.9 -- 39
2020-07-26 03:00:00 21.7 4 Norte 13 Norte 0 902.9 -- 33
2020-07-26 02:00:00 23.7 5 Oeste 18 Oeste 0 903.3 -- 32
2020-07-26 01:00:00 23.5 0 Calma 9 Sudeste 0 903.3 -- 33
2020-07-26 00:00:00 23.4 0 Calma 16 Este 0 903.1 -- 33
2020-07-25 23:00:00 23.5 3 Norte 9 Norte 0 902.8 -- 34
2020-07-25 22:00:00 26.8 0 Calma 17 Oeste 0 901.8 -- 27
2020-07-25 21:00:00 30.5 10 Oeste 22 Oeste 0 901.6 -- 23
2020-07-25 20:00:00 32.4 12 Oeste 26 Oeste 0 901.6 -- 22
2020-07-25 19:00:00 33.3 12 Noroeste 23 Noroeste 0 901.8 -- 22
2020-07-25 18:00:00 33.4 2 Este 15 Sur 0 901.9 -- 23
2020-07-25 17:00:00 32.8 3 Sudoeste 13 Este 0 902.1 -- 24
2020-07-25 16:00:00 31.6 6 Nordeste 22 Este 0 902.5 -- 26
2020-07-25 15:00:00 31.3 9 Sudeste 23 Sur 0 902.9 -- 27
2020-07-25 14:00:00 30.6 7 Sudeste 24 Este 0 903.2 -- 28
2020-07-25 13:00:00 30 5 Este 13 Sudeste 0 903.9 -- 28
2020-07-25 12:00:00 28.8 4 Sur 9 Este 0 904.1 -- 31
2020-07-25 11:00:00 26.9 3 Sudeste 7 Sudeste 0 904 -- 34
2020-07-25 10:00:00 23.8 0 Calma 6 Oeste 0 904.2 -- 41
2020-07-25 09:00:00 19.9 0 Calma 4 Este 0 904.1 -- 53
2020-07-25 08:00:00 14.4 0 Calma 4 Noroeste 0 903.9 -- 68
2020-07-25 07:00:00 13.3 3 Noroeste 6 Noroeste 0 903.8 -- 68
2020-07-25 06:00:00 13.2 0 Calma 5 Noroeste 0 903.9 -- 64
2020-07-25 05:00:00 14.2 0 Calma 7 Oeste 0 903.6 -- 60
2020-07-25 04:00:00 15.2 4 Noroeste 8 Oeste 0 903.7 -- 57
2020-07-25 03:00:00 17.5 5 Oeste 10 Sudoeste 0 903.7 -- 52
2020-07-25 02:00:00 19 5 Oeste 15 Noroeste 0 904 -- 40
2020-07-25 01:00:00 23.1 6 Noroeste 18 Norte 0 903.9 -- 33
2020-07-25 00:00:00 23.7 8 Noroeste 21 Noroeste 0 903.7 -- 33
2020-07-24 23:00:00 23.9 5 Noroeste 24 Norte 0 903.3 -- 31
2020-07-24 22:00:00 25.6 9 Noroeste 23 Norte 0 902.7 -- 27
2020-07-24 21:00:00 28.4 7 Norte 23 Norte 0 902.4 -- 24
2020-07-24 20:00:00 30.7 8 Noroeste 28 Noroeste 0 902.4 -- 22
2020-07-24 19:00:00 31.3 14 Noroeste 31 Noroeste 0 902.3 -- 22
2020-07-24 18:00:00 31.6 17 Noroeste 42 Oeste 0 902.4 -- 23
2020-07-24 17:00:00 31.4 16 Noroeste 33 Noroeste 0 902.5 -- 25
2020-07-24 16:00:00 31.5 16 Noroeste 34 Noroeste 0 902.9 -- 26
2020-07-24 15:00:00 -- 18 Noroeste 33 Oeste 0 903.2 -- --
2020-07-24 14:00:00 -- 8 Oeste 29 Oeste 0 903.3 -- --
2020-07-24 13:00:00 -- 13 Noroeste 30 Noroeste 0 903.4 -- --
2020-07-24 12:00:00 -- 6 Noroeste -- -- -- 903.6 -- --
2020-07-24 11:00:00 -- -- -- -- -- -- -- -- --
2020-07-24 10:00:00 -- -- -- -- -- -- -- -- --
2020-07-24 09:00:00 -- -- -- -- -- -- -- -- --
2020-07-24 08:00:00 -- -- -- -- -- -- -- -- --
2020-07-24 07:00:00 -- -- -- -- -- -- -- -- --
2020-07-24 06:00:00 -- -- -- -- -- -- -- -- --
2020-07-24 05:00:00 -- -- -- -- -- -- -- -- --
2020-07-24 04:00:00 -- -- -- -- -- -- -- -- --
2020-07-24 03:00:00 -- -- -- -- -- -- -- -- --
2020-07-24 02:00:00 -- -- -- -- -- -- -- -- --
2020-07-24 01:00:00 -- -- -- -- -- -- -- -- --
2020-07-24 00:00:00 -- -- -- -- -- -- -- -- --
2020-07-23 23:00:00 -- -- -- -- -- -- -- -- --
2020-07-23 22:00:00 -- -- -- -- -- -- -- -- --
2020-07-23 21:00:00 -- -- -- -- -- -- -- -- --
2020-07-23 20:00:00 -- -- -- -- -- -- -- -- --
2020-07-23 19:00:00 -- -- -- -- -- -- -- -- --
2020-07-23 18:00:00 -- -- -- -- -- -- -- -- --
2020-07-23 17:00:00 -- -- -- -- -- -- -- -- --
2020-07-23 16:00:00 -- -- -- -- -- -- -- -- --
2020-07-23 15:00:00 -- -- -- -- -- -- -- -- --
2020-07-23 14:00:00 -- -- -- -- -- -- -- -- --
2020-07-23 13:00:00 -- -- -- -- -- -- -- -- --
2020-07-23 12:00:00 -- -- -- -- -- -- -- -- --
2020-07-23 11:00:00 -- -- -- -- -- -- -- -- --
2020-07-23 10:00:00 -- -- -- -- -- -- -- -- --
2020-07-23 09:00:00 -- -- -- -- -- -- -- -- --
2020-07-23 08:00:00 -- -- -- -- -- -- -- -- --
2020-07-23 07:00:00 -- -- -- -- -- -- -- -- --
2020-07-23 06:00:00 -- -- -- -- -- -- -- -- --
2020-07-23 05:00:00 -- -- -- -- -- -- -- -- --
2020-07-23 04:00:00 -- -- -- -- -- -- -- -- --
2020-07-23 03:00:00 -- -- -- -- -- -- -- -- --
2020-07-23 02:00:00 -- -- -- -- -- -- -- -- --
2020-07-23 01:00:00 -- -- -- -- -- -- -- -- --
2020-07-23 00:00:00 -- -- -- -- -- -- -- -- --
2020-07-22 23:00:00 -- -- -- -- -- -- -- -- --
2020-07-22 22:00:00 -- -- -- -- -- -- -- -- --
2020-07-22 21:00:00 -- -- -- -- -- -- -- -- --
2020-07-22 20:00:00 -- -- -- -- -- -- -- -- --
2020-07-22 19:00:00 -- -- -- -- -- -- -- -- --
2020-07-22 18:00:00 -- -- -- -- -- -- -- -- --
2020-07-22 17:00:00 -- -- -- -- -- -- -- -- --
2020-07-22 16:00:00 -- -- -- -- -- -- -- -- --
2020-07-22 15:00:00 -- -- -- -- -- -- -- -- --
2020-07-22 14:00:00 -- -- -- -- -- -- -- -- --
2020-07-22 13:00:00 -- -- -- -- -- -- -- -- --
2020-07-22 12:00:00 -- -- -- -- -- -- -- -- --
2020-07-22 11:00:00 -- -- -- -- -- -- -- -- --
2020-07-22 10:00:00 -- -- -- -- -- -- -- -- --
2020-07-22 09:00:00 -- -- -- -- -- -- -- -- --
2020-07-22 08:00:00 -- -- -- -- -- -- -- -- --
2020-07-22 07:00:00 -- -- -- -- -- -- -- -- --
2020-07-22 06:00:00 -- -- -- -- -- -- -- -- --
2020-07-22 05:00:00 -- -- -- -- -- -- -- -- --
2020-07-22 04:00:00 -- -- -- -- -- -- -- -- --
2020-07-22 03:00:00 -- -- -- -- -- -- -- -- --
2020-07-22 02:00:00 -- -- -- -- -- -- -- -- --
2020-07-22 01:00:00 -- -- -- -- -- -- -- -- --
2020-07-22 00:00:00 -- -- -- -- -- -- -- -- --
2020-07-21 23:00:00 -- -- -- -- -- -- -- -- --
2020-07-21 22:00:00 -- -- -- -- -- -- -- -- --
2020-07-21 21:00:00 -- -- -- -- -- -- -- -- --
2020-07-21 20:00:00 -- -- -- -- -- -- -- -- --
2020-07-21 19:00:00 -- -- -- -- -- -- -- -- --
2020-07-21 18:00:00 -- -- -- -- -- -- -- -- --
2020-07-21 17:00:00 -- -- -- -- -- -- -- -- --
2020-07-21 16:00:00 -- -- -- -- -- -- -- -- --
2020-07-21 15:00:00 -- -- -- -- -- -- -- -- --
2020-07-21 14:00:00 -- -- -- -- -- -- -- -- --
2020-07-21 13:00:00 -- -- -- -- -- -- -- -- --
2020-07-21 12:00:00 -- -- -- -- -- -- -- -- --
2020-07-21 11:00:00 -- -- -- -- -- -- -- -- --
2020-07-21 10:00:00 -- -- -- -- -- -- -- -- --
2020-07-21 09:00:00 -- -- -- -- -- -- -- -- --
2020-07-21 08:00:00 -- -- -- -- -- -- -- -- --
2020-07-21 07:00:00 -- -- -- -- -- -- -- -- --
2020-07-21 06:00:00 -- -- -- -- -- -- -- -- --
2020-07-21 05:00:00 -- -- -- -- -- -- -- -- --
2020-07-21 04:00:00 -- -- -- -- -- -- -- -- --
2020-07-21 03:00:00 -- -- -- -- -- -- -- -- --
2020-07-21 02:00:00 -- -- -- -- -- -- -- -- --
2020-07-21 01:00:00 -- -- -- -- -- -- -- -- --
2020-07-21 00:00:00 -- -- -- -- -- -- -- -- --
2020-07-20 23:00:00 -- -- -- -- -- -- -- -- --
2020-07-20 22:00:00 -- -- -- -- -- -- -- -- --
2020-07-20 21:00:00 -- -- -- -- -- -- -- -- --
2020-07-20 20:00:00 -- -- -- -- -- -- -- -- --
2020-07-20 19:00:00 -- -- -- -- -- -- -- -- --
2020-07-20 18:00:00 -- -- -- -- -- -- -- -- --
2020-07-20 17:00:00 -- -- -- -- -- -- -- -- --
2020-07-20 16:00:00 -- -- -- -- -- -- -- -- --
2020-07-20 15:00:00 -- -- -- -- -- -- -- -- --
2020-07-20 14:00:00 -- -- -- -- -- -- -- -- --
2020-07-20 13:00:00 -- -- -- -- -- -- -- -- --
2020-07-20 12:00:00 -- -- -- -- -- -- -- -- --
2020-07-20 11:00:00 -- -- -- -- -- -- -- -- --
2020-07-20 10:00:00 -- -- -- -- -- -- -- -- --
2020-07-20 09:00:00 -- -- -- -- -- -- -- -- --
2020-07-20 08:00:00 -- -- -- -- -- -- -- -- --
2020-07-20 07:00:00 -- -- -- -- -- -- -- -- --
2020-07-20 06:00:00 -- -- -- -- -- -- -- -- --
2020-07-20 05:00:00 -- -- -- -- -- -- -- -- --
2020-07-20 04:00:00 -- -- -- -- -- -- -- -- --
2020-07-20 03:00:00 -- -- -- -- -- -- -- -- --
2020-07-20 02:00:00 -- -- -- -- -- -- -- -- --
2020-07-20 01:00:00 -- -- -- -- -- -- -- -- --
2020-07-20 00:00:00 -- -- -- -- -- -- -- -- --
2020-07-19 23:00:00 -- -- -- -- -- -- -- -- --
2020-07-19 22:00:00 -- -- -- -- -- -- -- -- --
2020-07-19 21:00:00 -- -- -- -- -- -- -- -- --
2020-07-19 20:00:00 -- -- -- -- -- -- -- -- --
2020-07-19 19:00:00 -- -- -- -- -- -- -- -- --
2020-07-19 18:00:00 -- -- -- -- -- -- -- -- --
2020-07-19 17:00:00 -- -- -- -- -- -- -- -- --
2020-07-19 16:00:00 -- -- -- -- -- -- -- -- --
2020-07-19 15:00:00 -- -- -- -- -- -- -- -- --
2020-07-19 14:00:00 -- -- -- -- -- -- -- -- --
2020-07-19 13:00:00 -- -- -- -- -- -- -- -- --
2020-07-19 12:00:00 -- -- -- -- -- -- -- -- --
2020-07-19 11:00:00 -- -- -- -- -- -- -- -- --
2020-07-19 10:00:00 -- -- -- -- -- -- -- -- --
2020-07-19 09:00:00 -- -- -- -- -- -- -- -- --
2020-07-19 08:00:00 -- -- -- -- -- -- -- -- --
2020-07-19 07:00:00 -- -- -- -- -- -- -- -- --
2020-07-19 06:00:00 -- -- -- -- -- -- -- -- --
2020-07-19 05:00:00 -- -- -- -- -- -- -- -- --
2020-07-19 04:00:00 -- -- -- -- -- -- -- -- --
2020-07-19 03:00:00 -- -- -- -- -- -- -- -- --
2020-07-19 02:00:00 -- -- -- -- -- -- -- -- --
2020-07-19 01:00:00 -- -- -- -- -- -- -- -- --
2020-07-19 00:00:00 -- -- -- -- -- -- -- -- --
2020-07-18 23:00:00 -- -- -- -- -- -- -- -- --
2020-07-18 22:00:00 -- -- -- -- -- -- -- -- --
2020-07-18 21:00:00 -- -- -- -- -- -- -- -- --
2020-07-18 20:00:00 -- -- -- -- -- -- -- -- --
2020-07-18 19:00:00 -- -- -- -- -- -- -- -- --
2020-07-18 18:00:00 -- -- -- -- -- -- -- -- --
2020-07-18 17:00:00 -- -- -- -- -- -- -- -- --
2020-07-18 16:00:00 -- -- -- -- -- -- -- -- --
2020-07-18 15:00:00 -- -- -- -- -- -- -- -- --
2020-07-18 14:00:00 -- -- -- -- -- -- -- -- --
2020-07-18 13:00:00 -- -- -- -- -- -- -- -- --
2020-07-18 12:00:00 -- -- -- -- -- -- -- -- --
2020-07-18 11:00:00 -- -- -- -- -- -- -- -- --
2020-07-18 10:00:00 -- -- -- -- -- -- -- -- --
2020-07-18 09:00:00 -- -- -- -- -- -- -- -- --
2020-07-18 08:00:00 -- -- -- -- -- -- -- -- --
2020-07-18 07:00:00 -- -- -- -- -- -- -- -- --
2020-07-18 06:00:00 -- -- -- -- -- -- -- -- --
2020-07-18 05:00:00 -- -- -- -- -- -- -- -- --
2020-07-18 04:00:00 -- -- -- -- -- -- -- -- --
2020-07-18 03:00:00 -- -- -- -- -- -- -- -- --
2020-07-18 02:00:00 -- -- -- -- -- -- -- -- --
2020-07-18 01:00:00 -- -- -- -- -- -- -- -- --
2020-07-18 00:00:00 -- -- -- -- -- -- -- -- --
2020-07-17 23:00:00 -- -- -- -- -- -- -- -- --
2020-07-17 22:00:00 -- -- -- -- -- -- -- -- --
2020-07-17 21:00:00 -- -- -- -- -- -- -- -- --
2020-07-17 20:00:00 -- -- -- -- -- -- -- -- --
2020-07-17 19:00:00 -- -- -- -- -- -- -- -- --
2020-07-17 18:00:00 -- -- -- -- -- -- -- -- --
2020-07-17 17:00:00 -- -- -- -- -- -- -- -- --
2020-07-17 16:00:00 -- -- -- -- -- -- -- -- --
2020-07-17 15:00:00 -- -- -- -- -- -- -- -- --
2020-07-17 14:00:00 -- -- -- -- -- -- -- -- --
2020-07-17 13:00:00 -- -- -- -- -- -- -- -- --
2020-07-17 12:00:00 -- -- -- -- -- -- -- -- --
2020-07-17 11:00:00 -- -- -- -- -- -- -- -- --
2020-07-17 10:00:00 -- -- -- -- -- -- -- -- --
2020-07-17 09:00:00 -- -- -- -- -- -- -- -- --
2020-07-17 08:00:00 -- -- -- -- -- -- -- -- --
2020-07-17 07:00:00 -- -- -- -- -- -- -- -- --
2020-07-17 06:00:00 -- -- -- -- -- -- -- -- --
2020-07-17 05:00:00 -- -- -- -- -- -- -- -- --
2020-07-17 04:00:00 -- -- -- -- -- -- -- -- --
2020-07-17 03:00:00 -- -- -- -- -- -- -- -- --
2020-07-17 02:00:00 -- -- -- -- -- -- -- -- --
2020-07-17 01:00:00 -- -- -- -- -- -- -- -- --
2020-07-17 00:00:00 -- -- -- -- -- -- -- -- --
2020-07-16 23:00:00 -- -- -- -- -- -- -- -- --
2020-07-16 22:00:00 -- -- -- -- -- -- -- -- --
2020-07-16 21:00:00 -- -- -- -- -- -- -- -- --
2020-07-16 20:00:00 -- -- -- -- -- -- -- -- --
2020-07-16 19:00:00 -- -- -- -- -- -- -- -- --
2020-07-16 18:00:00 -- -- -- -- -- -- -- -- --
2020-07-16 17:00:00 -- -- -- -- -- -- -- -- --
2020-07-16 16:00:00 -- -- -- -- -- -- -- -- --
2020-07-16 15:00:00 -- -- -- -- -- -- -- -- --
2020-07-16 14:00:00 -- -- -- -- -- -- -- -- --
2020-07-16 13:00:00 -- -- -- -- -- -- -- -- --
2020-07-16 12:00:00 -- -- -- -- -- -- -- -- --
2020-07-16 11:00:00 -- -- -- -- -- -- -- -- --
2020-07-16 10:00:00 -- -- -- -- -- -- -- -- --
2020-07-16 09:00:00 -- -- -- -- -- -- -- -- --
2020-07-16 08:00:00 -- -- -- -- -- -- -- -- --
2020-07-16 07:00:00 -- -- -- -- -- -- -- -- --
2020-07-16 06:00:00 -- -- -- -- -- -- -- -- --
2020-07-16 05:00:00 -- -- -- -- -- -- -- -- --
2020-07-16 04:00:00 -- -- -- -- -- -- -- -- --
2020-07-16 03:00:00 -- -- -- -- -- -- -- -- --
2020-07-16 02:00:00 -- -- -- -- -- -- -- -- --
2020-07-16 01:00:00 -- -- -- -- -- -- -- -- --
2020-07-16 00:00:00 -- -- -- -- -- -- -- -- --
2020-07-15 23:00:00 -- -- -- -- -- -- -- -- --
2020-07-15 22:00:00 -- -- -- -- -- -- -- -- --
2020-07-15 21:00:00 -- -- -- -- -- -- -- -- --
2020-07-15 20:00:00 -- -- -- -- -- -- -- -- --
2020-07-15 19:00:00 -- -- -- -- -- -- -- -- --
2020-07-15 18:00:00 -- -- -- -- -- -- -- -- --
2020-07-15 17:00:00 -- -- -- -- -- -- -- -- --
2020-07-15 16:00:00 -- -- -- -- -- -- -- -- --
2020-07-15 15:00:00 -- -- -- -- -- -- -- -- --
2020-07-15 14:00:00 -- -- -- -- -- -- -- -- --
2020-07-15 13:00:00 -- -- -- -- -- -- -- -- --
2020-07-15 12:00:00 -- 7 Sudeste 17 Sudeste 0 906.2 -- --
2020-07-15 11:00:00 -- 8 Sudeste 14 Sudeste 0 905.9 -- --
2020-07-15 10:00:00 -- 2 Sudeste 5 Sudoeste 0 905.8 -- --
2020-07-15 09:00:00 -- 2 Sudoeste 7 Sudoeste 0 905.6 -- --
2020-07-15 08:00:00 -- 0 Calma 5 Oeste 0 905.2 -- --
2020-07-15 07:00:00 -- 3 Oeste 4 Oeste 0 904.8 -- --
2020-07-15 06:00:00 -- 0 Calma 6 Oeste 0 904.5 -- --
2020-07-15 05:00:00 -- 3 Oeste 6 Oeste 0 904.6 -- --
2020-07-15 04:00:00 -- 2 Noroeste 7 Noroeste 0 904.8 -- --
2020-07-15 03:00:00 -- 4 Oeste 8 Oeste 0 904.9 -- --
2020-07-15 02:00:00 -- 0 Calma 6 Noroeste 0 905 -- --
2020-07-15 01:00:00 -- 0 Calma 7 Noroeste 0 905.1 -- --
2020-07-15 00:00:00 -- 4 Noroeste 8 Nordeste 0 904.7 -- --
2020-07-14 23:00:00 -- 2 Sudeste 15 Noroeste 0 904 -- --
2020-07-14 22:00:00 -- 0 Calma 15 Noroeste 0 903.4 -- --
2020-07-14 21:00:00 -- 5 Noroeste 18 Norte 0 902.8 -- --
2020-07-14 20:00:00 -- 9 Norte -- -- -- 902.3 -- --
2020-07-14 19:00:00 -- 15 Norte -- -- -- -- -- --
2020-07-14 18:00:00 -- -- -- -- -- -- -- -- --
2020-07-14 17:00:00 -- -- -- -- -- -- -- -- --
2020-07-14 16:00:00 -- 0 Calma -- -- -- -- -- --
2020-07-14 15:00:00 -- -- -- -- -- -- -- -- --
2020-07-14 14:00:00 -- -- -- -- -- -- -- -- --
2020-07-14 13:00:00 -- 5 Este 12 Sur 0 -- -- --
2020-07-14 12:00:00 -- 2 Este 9 Este 0 904.7 -- --
2020-07-14 11:00:00 -- 2 Sudeste 7 Sudeste 0 905 -- --
2020-07-14 10:00:00 -- 2 Sudeste 5 Sudoeste 0 905.3 -- --
2020-07-14 09:00:00 -- 2 Sudoeste 7 Noroeste 0 905.7 -- --
2020-07-14 08:00:00 -- 0 Calma 6 Oeste 0 905.9 -- --
2020-07-14 07:00:00 -- 3 Noroeste 7 Noroeste 0 905.9 -- --
2020-07-14 06:00:00 -- 4 Noroeste 6 Noroeste 0 905.9 -- --
2020-07-14 05:00:00 -- 0 Calma 10 Noroeste 0 905.9 -- --
2020-07-14 04:00:00 -- 3 Noroeste 6 Norte 0 906.4 -- --
2020-07-14 03:00:00 -- 0 Calma 5 Noroeste 0 906.6 -- --
2020-07-14 02:00:00 -- 0 Calma 8 Noroeste 0 906.6 -- --
2020-07-14 01:00:00 -- 0 Calma 16 Nordeste 0 907.1 -- --
2020-07-14 00:00:00 -- 5 Noroeste 15 Oeste 0 907 -- --